sensor_id;sensor_type;location;lat;lon;timestamp;pressure;altitude;pressure_sealevel;temperature;humidity
21290;BME280;10804;48.988;2.408;2023-06-22T00:01:18;100943.03;;;24.88;56.77
21290;BME280;10804;48.988;2.408;2023-06-22T00:03:47;100939.44;;;24.78;57.04
21290;BME280;10804;48.988;2.408;2023-06-22T00:06:14;100929.59;;;24.79;56.69
21290;BME280;10804;48.988;2.408;2023-06-22T00:08:42;100933.00;;;24.81;57.02
21290;BME280;10804;48.988;2.408;2023-06-22T00:11:09;100947.81;;;24.74;57.05
21290;BME280;10804;48.988;2.408;2023-06-22T00:13:37;100956.28;;;24.68;57.19
21290;BME280;10804;48.988;2.408;2023-06-22T00:16:05;100951.19;;;24.76;56.97
21290;BME280;10804;48.988;2.408;2023-06-22T00:18:32;100952.03;;;24.76;56.66
21290;BME280;10804;48.988;2.408;2023-06-22T00:21:01;100954.34;;;24.70;56.76
21290;BME280;10804;48.988;2.408;2023-06-22T00:23:28;100957.00;;;24.70;56.88
21290;BME280;10804;48.988;2.408;2023-06-22T00:26:00;100947.56;;;24.66;57.01
21290;BME280;10804;48.988;2.408;2023-06-22T00:28:27;100945.13;;;24.63;56.98
21290;BME280;10804;48.988;2.408;2023-06-22T00:30:55;100937.13;;;24.63;57.00
21290;BME280;10804;48.988;2.408;2023-06-22T00:33:22;100921.84;;;24.65;56.89
21290;BME280;10804;48.988;2.408;2023-06-22T00:35:49;100918.59;;;24.62;56.77
21290;BME280;10804;48.988;2.408;2023-06-22T00:38:20;100902.94;;;24.46;57.29
21290;BME280;10804;48.988;2.408;2023-06-22T00:40:47;100895.44;;;24.51;57.04
21290;BME280;10804;48.988;2.408;2023-06-22T00:43:14;100891.78;;;24.52;57.13
21290;BME280;10804;48.988;2.408;2023-06-22T00:45:42;100898.22;;;24.50;57.34
21290;BME280;10804;48.988;2.408;2023-06-22T00:48:09;100894.69;;;24.49;57.21
21290;BME280;10804;48.988;2.408;2023-06-22T00:50:37;100911.06;;;24.45;57.25
21290;BME280;10804;48.988;2.408;2023-06-22T00:53:05;100911.31;;;24.42;57.28
21290;BME280;10804;48.988;2.408;2023-06-22T00:55:37;100908.53;;;24.43;57.09
21290;BME280;10804;48.988;2.408;2023-06-22T00:58:05;100898.34;;;24.37;57.25
21290;BME280;10804;48.988;2.408;2023-06-22T01:00:34;100891.53;;;24.33;57.33
21290;BME280;10804;48.988;2.408;2023-06-22T01:03:01;100893.13;;;24.36;57.37
21290;BME280;10804;48.988;2.408;2023-06-22T01:05:29;100896.28;;;24.30;57.33
21290;BME280;10804;48.988;2.408;2023-06-22T01:08:06;100903.44;;;24.29;57.34
21290;BME280;10804;48.988;2.408;2023-06-22T01:10:44;100896.03;;;24.22;57.42
21290;BME280;10804;48.988;2.408;2023-06-22T01:13:20;100898.47;;;24.25;57.36
21290;BME280;10804;48.988;2.408;2023-06-22T01:15:54;100901.84;;;24.27;57.30
21290;BME280;10804;48.988;2.408;2023-06-22T01:18:27;100903.19;;;24.21;57.41
21290;BME280;10804;48.988;2.408;2023-06-22T01:20:56;100893.63;;;24.19;57.53
21290;BME280;10804;48.988;2.408;2023-06-22T01:23:29;100886.00;;;24.14;57.34
21290;BME280;10804;48.988;2.408;2023-06-22T01:26:08;100880.41;;;24.17;57.36
21290;BME280;10804;48.988;2.408;2023-06-22T01:28:47;100879.19;;;24.10;57.48
21290;BME280;10804;48.988;2.408;2023-06-22T01:31:17;100876.06;;;24.05;57.54
21290;BME280;10804;48.988;2.408;2023-06-22T01:33:50;100869.63;;;24.08;57.38
21290;BME280;10804;48.988;2.408;2023-06-22T01:36:18;100879.78;;;24.14;57.19
21290;BME280;10804;48.988;2.408;2023-06-22T01:38:48;100877.50;;;24.09;57.29
21290;BME280;10804;48.988;2.408;2023-06-22T01:41:19;100863.94;;;24.01;57.89
21290;BME280;10804;48.988;2.408;2023-06-22T01:43:48;100864.03;;;24.00;57.88
21290;BME280;10804;48.988;2.408;2023-06-22T01:46:17;100846.50;;;23.97;57.62
21290;BME280;10804;48.988;2.408;2023-06-22T01:48:46;100860.06;;;23.94;57.55
21290;BME280;10804;48.988;2.408;2023-06-22T01:51:14;100848.69;;;23.92;57.90
21290;BME280;10804;48.988;2.408;2023-06-22T01:53:42;100848.78;;;23.91;57.70
21290;BME280;10804;48.988;2.408;2023-06-22T01:56:10;100852.53;;;23.88;57.69
21290;BME280;10804;48.988;2.408;2023-06-22T01:58:46;100853.50;;;23.87;57.91
21290;BME280;10804;48.988;2.408;2023-06-22T02:01:21;100847.19;;;23.88;57.55
21290;BME280;10804;48.988;2.408;2023-06-22T02:03:59;100847.69;;;23.82;57.73
21290;BME280;10804;48.988;2.408;2023-06-22T02:06:31;100839.34;;;23.87;57.50
21290;BME280;10804;48.988;2.408;2023-06-22T02:09:09;100834.56;;;23.79;57.75
21290;BME280;10804;48.988;2.408;2023-06-22T02:11:40;100826.84;;;23.76;57.75
21290;BME280;10804;48.988;2.408;2023-06-22T02:14:08;100836.78;;;23.74;57.96
21290;BME280;10804;48.988;2.408;2023-06-22T02:16:37;100837.09;;;23.70;57.97
21290;BME280;10804;48.988;2.408;2023-06-22T02:19:05;100834.09;;;23.74;57.44
21290;BME280;10804;48.988;2.408;2023-06-22T02:21:34;100837.84;;;23.72;57.52
21290;BME280;10804;48.988;2.408;2023-06-22T02:24:01;100836.03;;;23.72;57.57
21290;BME280;10804;48.988;2.408;2023-06-22T02:26:35;100837.72;;;23.73;57.74
21290;BME280;10804;48.988;2.408;2023-06-22T02:29:04;100837.97;;;23.70;57.79
21290;BME280;10804;48.988;2.408;2023-06-22T02:31:31;100839.66;;;23.71;57.82
21290;BME280;10804;48.988;2.408;2023-06-22T02:34:00;100841.84;;;23.66;57.81
21290;BME280;10804;48.988;2.408;2023-06-22T02:36:27;100844.72;;;23.63;57.74
21290;BME280;10804;48.988;2.408;2023-06-22T02:38:57;100845.44;;;23.65;57.61
21290;BME280;10804;48.988;2.408;2023-06-22T02:41:27;100841.84;;;23.66;57.76
21290;BME280;10804;48.988;2.408;2023-06-22T02:43:56;100847.41;;;23.63;57.90
21290;BME280;10804;48.988;2.408;2023-06-22T02:46:23;100845.25;;;23.68;57.45
21290;BME280;10804;48.988;2.408;2023-06-22T02:48:52;100834.59;;;23.68;57.60
21290;BME280;10804;48.988;2.408;2023-06-22T02:51:21;100837.72;;;23.62;57.50
21290;BME280;10804;48.988;2.408;2023-06-22T02:53:48;100830.91;;;23.58;57.69
21290;BME280;10804;48.988;2.408;2023-06-22T02:56:20;100823.69;;;23.60;57.67
21290;BME280;10804;48.988;2.408;2023-06-22T02:58:54;100825.47;;;23.60;57.40
21290;BME280;10804;48.988;2.408;2023-06-22T03:01:28;100835.91;;;23.63;57.56
21290;BME280;10804;48.988;2.408;2023-06-22T03:03:57;100833.56;;;23.58;57.82
21290;BME280;10804;48.988;2.408;2023-06-22T03:06:27;100839.50;;;23.51;57.96
21290;BME280;10804;48.988;2.408;2023-06-22T03:11:23;100835.25;;;23.48;57.93
21290;BME280;10804;48.988;2.408;2023-06-22T03:13:50;100834.28;;;23.49;57.96
21290;BME280;10804;48.988;2.408;2023-06-22T03:16:18;100823.28;;;23.43;58.08
21290;BME280;10804;48.988;2.408;2023-06-22T03:18:45;100824.00;;;23.45;57.96
21290;BME280;10804;48.988;2.408;2023-06-22T03:21:13;100814.94;;;23.47;57.99
21290;BME280;10804;48.988;2.408;2023-06-22T03:23:42;100816.16;;;23.54;57.47
21290;BME280;10804;48.988;2.408;2023-06-22T03:26:10;100803.56;;;23.45;58.13
21290;BME280;10804;48.988;2.408;2023-06-22T03:28:37;100797.63;;;23.42;57.83
21290;BME280;10804;48.988;2.408;2023-06-22T03:31:05;100790.97;;;23.36;58.17
21290;BME280;10804;48.988;2.408;2023-06-22T03:33:35;100793.63;;;23.36;58.18
21290;BME280;10804;48.988;2.408;2023-06-22T03:36:03;100791.44;;;23.41;57.85
21290;BME280;10804;48.988;2.408;2023-06-22T03:38:31;100802.94;;;23.42;57.75
21290;BME280;10804;48.988;2.408;2023-06-22T03:40:59;100803.16;;;23.39;57.96
21290;BME280;10804;48.988;2.408;2023-06-22T03:43:28;100799.06;;;23.35;57.96
21290;BME280;10804;48.988;2.408;2023-06-22T03:45:56;100801.00;;;23.33;58.16
21290;BME280;10804;48.988;2.408;2023-06-22T03:48:23;100798.19;;;23.34;58.24
21290;BME280;10804;48.988;2.408;2023-06-22T03:50:50;100792.03;;;23.34;57.98
21290;BME280;10804;48.988;2.408;2023-06-22T03:53:18;100787.56;;;23.34;57.67
21290;BME280;10804;48.988;2.408;2023-06-22T03:55:49;100786.13;;;23.30;58.29
21290;BME280;10804;48.988;2.408;2023-06-22T03:58:19;100781.50;;;23.21;58.82
21290;BME280;10804;48.988;2.408;2023-06-22T04:00:47;100781.34;;;23.23;58.89
21290;BME280;10804;48.988;2.408;2023-06-22T04:03:15;100786.56;;;23.24;58.61
21290;BME280;10804;48.988;2.408;2023-06-22T04:05:45;100777.88;;;23.22;58.37
21290;BME280;10804;48.988;2.408;2023-06-22T04:08:12;100789.34;;;23.23;58.24
21290;BME280;10804;48.988;2.408;2023-06-22T04:10:40;100785.09;;;23.20;58.93
21290;BME280;10804;48.988;2.408;2023-06-22T04:13:07;100779.78;;;23.20;58.89
21290;BME280;10804;48.988;2.408;2023-06-22T04:15:36;100786.81;;;23.21;58.56
21290;BME280;10804;48.988;2.408;2023-06-22T04:18:03;100783.53;;;23.18;58.53
21290;BME280;10804;48.988;2.408;2023-06-22T04:20:31;100786.06;;;23.19;58.78
21290;BME280;10804;48.988;2.408;2023-06-22T04:22:59;100783.41;;;23.19;58.55
21290;BME280;10804;48.988;2.408;2023-06-22T04:25:27;100782.34;;;23.22;58.52
21290;BME280;10804;48.988;2.408;2023-06-22T04:27:55;100791.41;;;23.19;58.70
21290;BME280;10804;48.988;2.408;2023-06-22T04:30:22;100777.38;;;23.17;58.87
21290;BME280;10804;48.988;2.408;2023-06-22T04:32:51;100783.88;;;23.13;58.40
21290;BME280;10804;48.988;2.408;2023-06-22T04:35:23;100778.66;;;23.12;58.31
21290;BME280;10804;48.988;2.408;2023-06-22T04:37:52;100780.03;;;23.17;58.26
21290;BME280;10804;48.988;2.408;2023-06-22T04:40:21;100784.28;;;23.20;58.21
21290;BME280;10804;48.988;2.408;2023-06-22T04:42:49;100782.13;;;23.25;57.84
21290;BME280;10804;48.988;2.408;2023-06-22T04:45:19;100788.28;;;23.25;58.46
21290;BME280;10804;48.988;2.408;2023-06-22T04:47:47;100783.81;;;23.26;57.88
21290;BME280;10804;48.988;2.408;2023-06-22T04:50:16;100791.19;;;23.22;58.31
21290;BME280;10804;48.988;2.408;2023-06-22T04:52:44;100788.50;;;23.22;58.46
21290;BME280;10804;48.988;2.408;2023-06-22T04:55:11;100785.56;;;23.14;59.10
21290;BME280;10804;48.988;2.408;2023-06-22T04:57:38;100787.28;;;23.15;59.31
21290;BME280;10804;48.988;2.408;2023-06-22T05:00:06;100794.31;;;23.16;59.27
21290;BME280;10804;48.988;2.408;2023-06-22T05:02:43;100791.63;;;23.16;59.21
21290;BME280;10804;48.988;2.408;2023-06-22T05:05:11;100790.13;;;23.12;59.24
21290;BME280;10804;48.988;2.408;2023-06-22T05:07:42;100778.34;;;23.16;59.36
21290;BME280;10804;48.988;2.408;2023-06-22T05:10:11;100783.88;;;23.13;59.16
21290;BME280;10804;48.988;2.408;2023-06-22T05:12:39;100784.31;;;23.07;59.90
21290;BME280;10804;48.988;2.408;2023-06-22T05:15:08;100784.31;;;23.07;59.79
21290;BME280;10804;48.988;2.408;2023-06-22T05:17:35;100781.88;;;23.04;59.63
21290;BME280;10804;48.988;2.408;2023-06-22T05:20:08;100791.34;;;23.08;59.03
21290;BME280;10804;48.988;2.408;2023-06-22T05:22:36;100794.84;;;23.09;59.72
21290;BME280;10804;48.988;2.408;2023-06-22T05:25:07;100800.59;;;23.15;59.18
21290;BME280;10804;48.988;2.408;2023-06-22T05:27:35;100803.88;;;23.19;58.25
21290;BME280;10804;48.988;2.408;2023-06-22T05:30:06;100804.94;;;23.16;58.56
21290;BME280;10804;48.988;2.408;2023-06-22T05:32:34;100800.66;;;23.14;59.84
21290;BME280;10804;48.988;2.408;2023-06-22T05:35:01;100801.25;;;23.06;59.23
21290;BME280;10804;48.988;2.408;2023-06-22T05:37:29;100801.00;;;22.98;60.83
21290;BME280;10804;48.988;2.408;2023-06-22T05:39:56;100790.84;;;23.03;59.29
21290;BME280;10804;48.988;2.408;2023-06-22T05:42:25;100787.19;;;23.04;59.62
21290;BME280;10804;48.988;2.408;2023-06-22T05:44:52;100778.38;;;23.04;59.79
21290;BME280;10804;48.988;2.408;2023-06-22T05:47:20;100779.00;;;23.07;59.98
21290;BME280;10804;48.988;2.408;2023-06-22T05:49:48;100777.06;;;22.98;60.69
21290;BME280;10804;48.988;2.408;2023-06-22T05:52:16;100771.47;;;23.01;60.35
21290;BME280;10804;48.988;2.408;2023-06-22T05:54:43;100779.47;;;23.01;61.07
21290;BME280;10804;48.988;2.408;2023-06-22T05:57:11;100782.72;;;22.94;60.27
21290;BME280;10804;48.988;2.408;2023-06-22T05:59:40;100776.28;;;22.96;61.34
21290;BME280;10804;48.988;2.408;2023-06-22T06:02:07;100780.28;;;22.91;61.62
21290;BME280;10804;48.988;2.408;2023-06-22T06:04:34;100770.34;;;22.82;61.55
21290;BME280;10804;48.988;2.408;2023-06-22T06:07:02;100776.00;;;22.77;62.12
21290;BME280;10804;48.988;2.408;2023-06-22T06:09:29;100776.16;;;22.87;61.57
21290;BME280;10804;48.988;2.408;2023-06-22T06:11:57;100774.34;;;22.87;61.22
21290;BME280;10804;48.988;2.408;2023-06-22T06:14:24;100771.06;;;22.84;61.65
21290;BME280;10804;48.988;2.408;2023-06-22T06:16:53;100770.44;;;22.80;61.58
21290;BME280;10804;48.988;2.408;2023-06-22T06:19:20;100764.03;;;22.83;61.50
21290;BME280;10804;48.988;2.408;2023-06-22T06:21:47;100762.97;;;22.85;61.69
21290;BME280;10804;48.988;2.408;2023-06-22T06:24:15;100772.75;;;22.85;60.89
21290;BME280;10804;48.988;2.408;2023-06-22T06:26:43;100769.13;;;22.86;60.40
21290;BME280;10804;48.988;2.408;2023-06-22T06:29:10;100776.03;;;22.88;61.53
21290;BME280;10804;48.988;2.408;2023-06-22T06:31:40;100787.88;;;22.84;60.94
21290;BME280;10804;48.988;2.408;2023-06-22T06:34:09;100786.28;;;22.82;60.86
21290;BME280;10804;48.988;2.408;2023-06-22T06:36:36;100782.78;;;22.81;61.38
21290;BME280;10804;48.988;2.408;2023-06-22T06:39:03;100793.66;;;22.78;61.61
21290;BME280;10804;48.988;2.408;2023-06-22T06:41:31;100790.88;;;22.80;60.90
21290;BME280;10804;48.988;2.408;2023-06-22T06:44:00;100789.81;;;22.82;61.21
21290;BME280;10804;48.988;2.408;2023-06-22T06:46:27;100786.63;;;22.77;60.65
21290;BME280;10804;48.988;2.408;2023-06-22T06:48:55;100785.91;;;22.75;61.80
21290;BME280;10804;48.988;2.408;2023-06-22T06:51:23;100783.47;;;22.72;62.39
21290;BME280;10804;48.988;2.408;2023-06-22T06:53:51;100775.72;;;22.69;62.93
21290;BME280;10804;48.988;2.408;2023-06-22T06:56:18;100771.66;;;22.76;61.07
21290;BME280;10804;48.988;2.408;2023-06-22T06:58:45;100772.72;;;22.74;61.74
21290;BME280;10804;48.988;2.408;2023-06-22T07:01:13;100771.50;;;22.78;61.01
21290;BME280;10804;48.988;2.408;2023-06-22T07:03:40;100773.06;;;22.69;62.22
21290;BME280;10804;48.988;2.408;2023-06-22T07:06:08;100770.34;;;22.58;62.93
21290;BME280;10804;48.988;2.408;2023-06-22T07:08:36;100764.19;;;22.58;62.88
21290;BME280;10804;48.988;2.408;2023-06-22T07:11:05;100766.00;;;22.57;62.34
21290;BME280;10804;48.988;2.408;2023-06-22T07:13:33;100767.25;;;22.64;61.39
21290;BME280;10804;48.988;2.408;2023-06-22T07:16:00;100766.50;;;22.62;62.15
21290;BME280;10804;48.988;2.408;2023-06-22T07:18:27;100764.81;;;22.61;62.37
21290;BME280;10804;48.988;2.408;2023-06-22T07:20:55;100755.25;;;22.59;61.94
21290;BME280;10804;48.988;2.408;2023-06-22T07:23:22;100753.47;;;22.59;62.16
21290;BME280;10804;48.988;2.408;2023-06-22T07:25:51;100751.97;;;22.55;62.95
21290;BME280;10804;48.988;2.408;2023-06-22T07:28:18;100749.31;;;22.55;62.03
21290;BME280;10804;48.988;2.408;2023-06-22T07:30:46;100755.81;;;22.51;63.06
21290;BME280;10804;48.988;2.408;2023-06-22T07:33:13;100743.00;;;22.45;64.37
21290;BME280;10804;48.988;2.408;2023-06-22T07:35:40;100749.56;;;22.40;63.86
21290;BME280;10804;48.988;2.408;2023-06-22T07:38:08;100739.78;;;22.40;63.46
21290;BME280;10804;48.988;2.408;2023-06-22T07:40:35;100746.81;;;22.41;63.13
21290;BME280;10804;48.988;2.408;2023-06-22T07:43:04;100743.31;;;22.41;62.96
21290;BME280;10804;48.988;2.408;2023-06-22T07:45:33;100747.69;;;22.42;63.84
21290;BME280;10804;48.988;2.408;2023-06-22T07:48:01;100747.03;;;22.38;63.78
21290;BME280;10804;48.988;2.408;2023-06-22T07:50:28;100744.72;;;22.34;63.69
21290;BME280;10804;48.988;2.408;2023-06-22T07:52:56;100748.44;;;22.31;64.85
21290;BME280;10804;48.988;2.408;2023-06-22T07:55:23;100744.72;;;22.34;63.73
21290;BME280;10804;48.988;2.408;2023-06-22T07:57:50;100742.41;;;22.29;64.59
21290;BME280;10804;48.988;2.408;2023-06-22T08:00:20;100742.06;;;22.34;63.71
21290;BME280;10804;48.988;2.408;2023-06-22T08:02:47;100744.28;;;22.27;65.46
21290;BME280;10804;48.988;2.408;2023-06-22T08:05:15;100744.53;;;22.24;64.63
21290;BME280;10804;48.988;2.408;2023-06-22T08:07:43;100739.22;;;22.24;64.70
21290;BME280;10804;48.988;2.408;2023-06-22T08:10:11;100732.94;;;22.25;64.92
21290;BME280;10804;48.988;2.408;2023-06-22T08:12:40;100747.09;;;22.26;65.09
21290;BME280;10804;48.988;2.408;2023-06-22T08:15:08;100737.72;;;22.20;65.03
21290;BME280;10804;48.988;2.408;2023-06-22T08:17:37;100752.41;;;22.26;65.22
21290;BME280;10804;48.988;2.408;2023-06-22T08:20:06;100756.84;;;22.25;65.30
21290;BME280;10804;48.988;2.408;2023-06-22T08:22:37;100750.56;;;22.26;64.76
21290;BME280;10804;48.988;2.408;2023-06-22T08:25:05;100739.47;;;22.21;64.70
21290;BME280;10804;48.988;2.408;2023-06-22T08:27:33;100749.75;;;22.26;64.58
21290;BME280;10804;48.988;2.408;2023-06-22T08:30:01;100749.13;;;22.22;64.38
21290;BME280;10804;48.988;2.408;2023-06-22T08:32:29;100743.28;;;22.17;64.71
21290;BME280;10804;48.988;2.408;2023-06-22T08:35:00;100743.34;;;22.28;64.09
21290;BME280;10804;48.988;2.408;2023-06-22T08:37:27;100750.69;;;22.25;64.48
21290;BME280;10804;48.988;2.408;2023-06-22T08:39:58;100758.78;;;22.23;64.71
21290;BME280;10804;48.988;2.408;2023-06-22T08:42:27;100751.78;;;22.22;64.01
21290;BME280;10804;48.988;2.408;2023-06-22T08:44:54;100757.31;;;22.19;65.35
21290;BME280;10804;48.988;2.408;2023-06-22T08:47:22;100752.50;;;22.24;64.63
21290;BME280;10804;48.988;2.408;2023-06-22T08:49:49;100761.44;;;22.23;64.23
21290;BME280;10804;48.988;2.408;2023-06-22T08:52:18;100760.47;;;22.24;64.88
21290;BME280;10804;48.988;2.408;2023-06-22T08:54:46;100769.13;;;22.15;64.90
21290;BME280;10804;48.988;2.408;2023-06-22T08:57:13;100767.19;;;22.17;65.31
21290;BME280;10804;48.988;2.408;2023-06-22T08:59:41;100759.56;;;22.13;65.14
21290;BME280;10804;48.988;2.408;2023-06-22T09:02:08;100772.75;;;22.14;64.61
21290;BME280;10804;48.988;2.408;2023-06-22T09:04:35;100768.25;;;22.15;65.65
21290;BME280;10804;48.988;2.408;2023-06-22T09:07:03;100763.81;;;22.15;65.91
21290;BME280;10804;48.988;2.408;2023-06-22T09:09:32;100772.28;;;22.20;64.80
21290;BME280;10804;48.988;2.408;2023-06-22T09:11:59;100767.53;;;22.13;65.33
21290;BME280;10804;48.988;2.408;2023-06-22T09:14:26;100766.03;;;22.09;65.57
21290;BME280;10804;48.988;2.408;2023-06-22T09:16:54;100760.88;;;22.07;66.55
21290;BME280;10804;48.988;2.408;2023-06-22T09:19:21;100756.03;;;22.12;65.77
21290;BME280;10804;48.988;2.408;2023-06-22T09:21:49;100759.38;;;22.03;65.97
21290;BME280;10804;48.988;2.408;2023-06-22T09:24:16;100761.41;;;22.00;66.92
21290;BME280;10804;48.988;2.408;2023-06-22T09:26:45;100764.19;;;21.98;66.58
21290;BME280;10804;48.988;2.408;2023-06-22T09:29:12;100763.97;;;22.01;66.33
21290;BME280;10804;48.988;2.408;2023-06-22T09:31:39;100763.53;;;22.07;66.01
21290;BME280;10804;48.988;2.408;2023-06-22T09:34:07;100765.22;;;22.08;65.70
21290;BME280;10804;48.988;2.408;2023-06-22T09:36:34;100769.28;;;22.01;66.93
21290;BME280;10804;48.988;2.408;2023-06-22T09:39:02;100765.41;;;22.05;66.60
21290;BME280;10804;48.988;2.408;2023-06-22T09:41:32;100769.03;;;22.04;65.40
21290;BME280;10804;48.988;2.408;2023-06-22T09:44:01;100776.81;;;22.07;65.91
21290;BME280;10804;48.988;2.408;2023-06-22T09:46:28;100771.16;;;22.12;65.52
21290;BME280;10804;48.988;2.408;2023-06-22T09:48:55;100769.31;;;22.12;65.88
21290;BME280;10804;48.988;2.408;2023-06-22T09:51:23;100779.22;;;22.10;66.16
21290;BME280;10804;48.988;2.408;2023-06-22T09:53:50;100772.44;;;22.06;66.42
21290;BME280;10804;48.988;2.408;2023-06-22T09:56:18;100788.06;;;22.11;66.77
21290;BME280;10804;48.988;2.408;2023-06-22T09:58:46;100790.59;;;22.12;66.37
21290;BME280;10804;48.988;2.408;2023-06-22T10:01:15;100801.34;;;22.11;66.68
21290;BME280;10804;48.988;2.408;2023-06-22T10:03:44;100804.09;;;22.09;65.90
21290;BME280;10804;48.988;2.408;2023-06-22T10:06:12;100797.38;;;22.16;66.25
21290;BME280;10804;48.988;2.408;2023-06-22T10:08:39;100808.03;;;22.16;66.80
21290;BME280;10804;48.988;2.408;2023-06-22T10:11:06;100804.63;;;22.14;66.58
21290;BME280;10804;48.988;2.408;2023-06-22T10:13:34;100805.78;;;22.10;66.97
21290;BME280;10804;48.988;2.408;2023-06-22T10:16:01;100799.41;;;22.13;67.09
21290;BME280;10804;48.988;2.408;2023-06-22T10:18:30;100787.09;;;22.12;67.15
21290;BME280;10804;48.988;2.408;2023-06-22T10:20:57;100799.81;;;22.19;66.78
21290;BME280;10804;48.988;2.408;2023-06-22T10:23:25;100788.97;;;22.22;66.26
21290;BME280;10804;48.988;2.408;2023-06-22T10:25:52;100795.75;;;22.26;66.68
21290;BME280;10804;48.988;2.408;2023-06-22T10:28:19;100803.63;;;22.28;65.93
21290;BME280;10804;48.988;2.408;2023-06-22T10:30:47;100806.81;;;22.33;66.40
21290;BME280;10804;48.988;2.408;2023-06-22T10:33:14;100807.00;;;22.30;67.41
21290;BME280;10804;48.988;2.408;2023-06-22T10:35:45;100798.84;;;22.33;66.89
21290;BME280;10804;48.988;2.408;2023-06-22T10:38:12;100799.34;;;22.38;66.44
21290;BME280;10804;48.988;2.408;2023-06-22T10:40:39;100807.88;;;22.43;66.79
21290;BME280;10804;48.988;2.408;2023-06-22T10:43:07;100802.22;;;22.47;66.62
21290;BME280;10804;48.988;2.408;2023-06-22T10:45:34;100817.44;;;22.45;67.64
21290;BME280;10804;48.988;2.408;2023-06-22T10:48:01;100817.81;;;22.52;66.33
21290;BME280;10804;48.988;2.408;2023-06-22T10:50:29;100821.81;;;22.57;68.16
21290;BME280;10804;48.988;2.408;2023-06-22T10:52:57;100825.84;;;22.63;66.80
21290;BME280;10804;48.988;2.408;2023-06-22T10:55:25;100827.09;;;22.70;66.86
21290;BME280;10804;48.988;2.408;2023-06-22T10:57:52;100836.44;;;22.75;67.80
21290;BME280;10804;48.988;2.408;2023-06-22T11:00:20;100841.75;;;22.75;68.63
21290;BME280;10804;48.988;2.408;2023-06-22T11:02:47;100847.81;;;22.77;68.03
21290;BME280;10804;48.988;2.408;2023-06-22T11:05:14;100852.78;;;22.82;67.19
21290;BME280;10804;48.988;2.408;2023-06-22T11:07:42;100867.44;;;22.87;67.82
21290;BME280;10804;48.988;2.408;2023-06-22T11:10:12;100868.94;;;22.91;67.33
21290;BME280;10804;48.988;2.408;2023-06-22T11:12:39;100866.59;;;22.87;67.70
21290;BME280;10804;48.988;2.408;2023-06-22T11:15:07;100860.19;;;22.89;67.99
21290;BME280;10804;48.988;2.408;2023-06-22T11:17:35;100866.75;;;22.96;67.22
21290;BME280;10804;48.988;2.408;2023-06-22T11:20:03;100864.59;;;23.01;68.28
21290;BME280;10804;48.988;2.408;2023-06-22T11:22:36;100864.16;;;23.07;68.13
21290;BME280;10804;48.988;2.408;2023-06-22T11:25:04;100867.16;;;23.03;67.99
21290;BME280;10804;48.988;2.408;2023-06-22T11:27:33;100873.72;;;23.10;67.86
21290;BME280;10804;48.988;2.408;2023-06-22T11:30:00;100873.47;;;23.13;67.22
21290;BME280;10804;48.988;2.408;2023-06-22T11:32:28;100873.06;;;23.19;67.18
21290;BME280;10804;48.988;2.408;2023-06-22T11:34:56;100874.41;;;23.24;67.08
21290;BME280;10804;48.988;2.408;2023-06-22T11:37:23;100871.03;;;23.22;67.19
21290;BME280;10804;48.988;2.408;2023-06-22T11:39:50;100868.13;;;23.25;66.47
21290;BME280;10804;48.988;2.408;2023-06-22T11:42:20;100863.91;;;23.34;66.36
21290;BME280;10804;48.988;2.408;2023-06-22T11:44:51;100861.88;;;23.37;66.17
21290;BME280;10804;48.988;2.408;2023-06-22T11:47:18;100853.38;;;23.32;66.19
21290;BME280;10804;48.988;2.408;2023-06-22T11:49:46;100858.00;;;23.41;66.01
21290;BME280;10804;48.988;2.408;2023-06-22T11:52:13;100850.63;;;23.45;65.68
21290;BME280;10804;48.988;2.408;2023-06-22T11:54:40;100844.69;;;23.41;65.92
21290;BME280;10804;48.988;2.408;2023-06-22T11:57:08;100844.13;;;23.49;65.23
21290;BME280;10804;48.988;2.408;2023-06-22T11:59:35;100859.84;;;23.52;65.54
21290;BME280;10804;48.988;2.408;2023-06-22T12:02:04;100859.00;;;23.51;65.73
21290;BME280;10804;48.988;2.408;2023-06-22T12:04:33;100873.06;;;23.53;65.21
21290;BME280;10804;48.988;2.408;2023-06-22T12:07:00;100878.13;;;23.56;65.04
21290;BME280;10804;48.988;2.408;2023-06-22T12:09:28;100877.03;;;23.59;65.08
21290;BME280;10804;48.988;2.408;2023-06-22T12:11:55;100869.91;;;23.59;64.80
21290;BME280;10804;48.988;2.408;2023-06-22T12:14:22;100871.25;;;23.65;64.41
21290;BME280;10804;48.988;2.408;2023-06-22T12:16:50;100875.50;;;23.67;64.94
21290;BME280;10804;48.988;2.408;2023-06-22T12:19:18;100871.25;;;23.65;65.15
21290;BME280;10804;48.988;2.408;2023-06-22T12:21:46;100879.97;;;23.67;64.95
21290;BME280;10804;48.988;2.408;2023-06-22T12:24:13;100874.63;;;23.67;64.84
21290;BME280;10804;48.988;2.408;2023-06-22T12:26:40;100886.16;;;23.67;65.02
21290;BME280;10804;48.988;2.408;2023-06-22T12:29:08;100876.72;;;23.74;64.27
21290;BME280;10804;48.988;2.408;2023-06-22T12:31:36;100880.72;;;23.80;64.37
21290;BME280;10804;48.988;2.408;2023-06-22T12:34:04;100898.41;;;23.81;64.55
21290;BME280;10804;48.988;2.408;2023-06-22T12:36:33;100890.16;;;23.84;64.25
21290;BME280;10804;48.988;2.408;2023-06-22T12:39:00;100896.88;;;23.89;63.23
21290;BME280;10804;48.988;2.408;2023-06-22T12:41:28;100900.88;;;23.95;63.38
21290;BME280;10804;48.988;2.408;2023-06-22T12:43:55;100899.03;;;23.95;63.58
21290;BME280;10804;48.988;2.408;2023-06-22T12:46:22;100905.97;;;23.98;63.62
21290;BME280;10804;48.988;2.408;2023-06-22T12:48:49;100907.03;;;23.95;64.43
21290;BME280;10804;48.988;2.408;2023-06-22T12:51:21;100916.41;;;24.01;64.17
21290;BME280;10804;48.988;2.408;2023-06-22T12:53:50;100923.06;;;24.06;64.30
21290;BME280;10804;48.988;2.408;2023-06-22T12:56:17;100927.16;;;24.10;63.21
21290;BME280;10804;48.988;2.408;2023-06-22T12:58:45;100933.97;;;24.14;62.74